Private Wetterstation Sandau
Wetterdaten: Mittwoch, 25.07.2012
Datum Zeit Temp. A. Feuchte A. Luftdruck Regen Wind Richtung Richtung Taupunkt Windchill
25.07.2012 21:46 26,3 C 61 % 1014,2 hPa 0,0 l/m 2,2 km/h (1 Bft) N 360 18,2 C 26,3 C
25.07.2012 21:51 26,0 C 60 % 1014,0 hPa 0,0 l/m 0,0 km/h (0 Bft) N 360 17,6 C 26,0 C
25.07.2012 21:56 25,9 C 61 % 1014,2 hPa 0,0 l/m 1,8 km/h (1 Bft) N 360 17,8 C 25,9 C
25.07.2012 22:01 25,6 C 62 % 1014,2 hPa 0,0 l/m 0,0 km/h (0 Bft) N 360 17,8 C 25,6 C
25.07.2012 22:06 25,4 C 62 % 1014,2 hPa 0,0 l/m 1,8 km/h (1 Bft) N 360 17,6 C 25,4 C
25.07.2012 22:11 25,2 C 62 % 1014,1 hPa 0,0 l/m 4,7 km/h (1 Bft) N 360 17,4 C 25,2 C
25.07.2012 22:16 25,1 C 61 % 1014,2 hPa 0,0 l/m 3,2 km/h (1 Bft) N-NO 22 17,0 C 25,1 C
25.07.2012 22:21 25,1 C 61 % 1014,1 hPa 0,0 l/m 3,6 km/h (1 Bft) N 360 17,0 C 25,1 C
25.07.2012 22:26 25,1 C 60 % 1014,1 hPa 0,0 l/m 2,2 km/h (1 Bft) N 360 16,8 C 25,1 C
25.07.2012 22:31 25,2 C 60 % 1014,0 hPa 0,0 l/m 3,6 km/h (1 Bft) N-NO 22 16,9 C 25,2 C
25.07.2012 22:36 25,1 C 60 % 1014,1 hPa 0,0 l/m 3,6 km/h (1 Bft) N 360 16,8 C 25,1 C
25.07.2012 22:41 25,1 C 60 % 1014,0 hPa 0,0 l/m 6,5 km/h (2 Bft) N 360 16,8 C 25,1 C
25.07.2012 22:46 25,1 C 60 % 1014,1 hPa 0,0 l/m 2,2 km/h (1 Bft) N 360 16,8 C 25,1 C
25.07.2012 22:51 25,1 C 60 % 1014,2 hPa 0,0 l/m 3,2 km/h (1 Bft) N-NO 22 16,8 C 25,1 C
25.07.2012 22:56 25,0 C 60 % 1014,3 hPa 0,0 l/m 3,2 km/h (1 Bft) N 360 16,7 C 25,0 C
25.07.2012 23:01 24,9 C 61 % 1014,2 hPa 0,0 l/m 5,4 km/h (1 Bft) O-NO 67 16,8 C 24,9 C
25.07.2012 23:06 24,8 C 60 % 1014,2 hPa 0,0 l/m 1,4 km/h (1 Bft) N-NW 337 16,5 C 24,8 C
25.07.2012 23:11 24,6 C 61 % 1014,3 hPa 0,0 l/m 0,0 km/h (0 Bft) O-NO 67 16,6 C 24,6 C
25.07.2012 23:16 24,5 C 61 % 1014,2 hPa 0,0 l/m 0,0 km/h (0 Bft) NO 45 16,5 C 24,5 C
25.07.2012 23:21 24,4 C 61 % 1014,1 hPa 0,0 l/m 2,9 km/h (1 Bft) NO 45 16,4 C 24,4 C
25.07.2012 23:26 24,3 C 61 % 1014,3 hPa 0,0 l/m 0,0 km/h (0 Bft) N 360 16,3 C 24,3 C
25.07.2012 23:31 24,2 C 61 % 1014,2 hPa 0,0 l/m 0,0 km/h (0 Bft) N 360 16,2 C 24,2 C
25.07.2012 23:36 24,1 C 61 % 1014,3 hPa 0,0 l/m 0,0 km/h (0 Bft) N-NO 22 16,1 C 24,1 C
25.07.2012 23:41 24,0 C 62 % 1014,4 hPa 0,0 l/m 0,0 km/h (0 Bft) NW 315 16,3 C 24,0 C
25.07.2012 23:46 23,8 C 64 % 1014,3 hPa 0,0 l/m 2,9 km/h (1 Bft) W-NW 292 16,6 C 23,8 C
25.07.2012 23:51 23,6 C 65 % 1014,3 hPa 0,0 l/m 1,4 km/h (1 Bft) W-NW 292 16,6 C 23,6 C
25.07.2012 23:56 23,4 C 65 % 1014,2 hPa 0,0 l/m 1,1 km/h (1 Bft) W-NW 292 16,4 C 23,4 C
_ Min-Zeit 23:56 21:51 21:51 - 21:51 - - 23:36 23:56
Minimum _ 23,4 C 60 % 1014,0 hPa - 0,0 km/h (0 Bft) - - 16,1 C 23,4 C
_ Max-Zeit 21:46 23:51 23:41 21:46 22:41 - - 21:46 21:46
Maximum _ 26,3 C 65 % 1014,4 hPa 0,0 l/m 6,5 km/h
N (2 Bft)
- - 18,2 C 26,3 C
Durchschnitt _ 25,5 C 61 % 1014,2 hPa #0,0 l/m 2,2 km/h (1 Bft) N - 17,5 C 25,5 C
(c) by David Heller